createdAt,value
2017-11-08T00:00:01.604Z,5.24
2017-11-08T00:00:06.139Z,5.24
2017-11-08T00:00:09.969Z,5.25
2017-11-08T00:00:14.049Z,5.25
2017-11-08T00:00:17.876Z,5.24
2017-11-08T00:00:21.691Z,5.24
2017-11-08T00:00:25.632Z,5.24
2017-11-08T00:00:29.452Z,5.24
2017-11-08T00:00:33.394Z,5.23
2017-11-08T00:00:37.601Z,5.24
2017-11-08T00:00:41.830Z,5.24
2017-11-08T00:00:45.786Z,5.24
2017-11-08T00:00:49.996Z,5.23
2017-11-08T00:00:54.087Z,5.24
2017-11-08T00:00:58.434Z,5.24
2017-11-08T00:01:02.641Z,5.25
2017-11-08T00:01:06.719Z,5.24
2017-11-08T00:01:10.801Z,5.23
2017-11-08T00:01:14.882Z,5.24
2017-11-08T00:01:18.965Z,5.24
2017-11-08T00:01:22.920Z,5.23
2017-11-08T00:01:27.259Z,5.24
2017-11-08T00:01:31.071Z,5.23
2017-11-08T00:01:35.544Z,5.23
2017-11-08T00:01:39.615Z,5.23
2017-11-08T00:01:43.432Z,5.24
2017-11-08T00:01:47.553Z,5.24
2017-11-08T00:01:51.908Z,5.24
2017-11-08T00:01:55.862Z,5.24
2017-11-08T00:01:59.815Z,5.24
2017-11-08T00:02:03.824Z,5.23
2017-11-08T00:02:07.775Z,5.23
2017-11-08T00:02:11.588Z,5.24
2017-11-08T00:02:15.666Z,5.24
2017-11-08T00:02:20.010Z,5.24
2017-11-08T00:02:24.126Z,5.23
2017-11-08T00:02:27.950Z,5.23
2017-11-08T00:02:31.766Z,5.23
2017-11-08T00:02:35.581Z,5.23
2017-11-08T00:02:39.528Z,5.23
2017-11-08T00:02:43.625Z,5.23
2017-11-08T00:02:47.574Z,5.23
2017-11-08T00:02:51.524Z,5.22
2017-11-08T00:02:55.473Z,5.23
2017-11-08T00:02:59.418Z,5.22
2017-11-08T00:03:03.496Z,5.23
2017-11-08T00:03:07.446Z,5.23
2017-11-08T00:03:11.259Z,5.22
2017-11-08T00:03:15.201Z,5.23
2017-11-08T00:03:19.560Z,5.23
2017-11-08T00:03:23.774Z,5.22
2017-11-08T00:03:27.851Z,5.22
2017-11-08T00:03:31.680Z,5.23
2017-11-08T00:03:35.891Z,5.23
2017-11-08T00:03:39.963Z,5.23
2017-11-08T00:03:43.777Z,5.23
2017-11-08T00:03:47.730Z,5.24
2017-11-08T00:03:51.681Z,5.23
2017-11-08T00:03:55.764Z,5.23
2017-11-08T00:03:59.733Z,5.23
2017-11-08T00:04:03.697Z,5.24
2017-11-08T00:04:07.772Z,5.23
2017-11-08T00:04:11.589Z,5.24
2017-11-08T00:04:15.796Z,5.23
2017-11-08T00:04:19.617Z,5.24
2017-11-08T00:04:23.700Z,5.24
2017-11-08T00:04:27.779Z,5.24
2017-11-08T00:04:31.726Z,5.24
2017-11-08T00:04:35.678Z,5.24
2017-11-08T00:04:39.622Z,5.24
2017-11-08T00:04:43.719Z,5.24
2017-11-08T00:04:47.927Z,5.24
2017-11-08T00:04:52.003Z,5.24
2017-11-08T00:04:56.216Z,5.24
2017-11-08T00:05:00.422Z,5.24
2017-11-08T00:05:04.801Z,5.25
2017-11-08T00:05:08.743Z,5.25
2017-11-08T00:05:12.557Z,5.25
2017-11-08T00:05:16.636Z,5.26
2017-11-08T00:05:20.457Z,5.26
2017-11-08T00:05:24.416Z,5.27
2017-11-08T00:05:28.362Z,5.26
2017-11-08T00:05:32.438Z,5.26
2017-11-08T00:05:36.123Z,5.26
2017-11-08T00:05:40.205Z,5.26
2017-11-08T00:05:44.169Z,5.27
2017-11-08T00:05:48.114Z,5.27
2017-11-08T00:05:52.069Z,5.27
2017-11-08T00:05:56.017Z,5.27
2017-11-08T00:05:59.956Z,5.27
2017-11-08T00:06:03.971Z,5.27
2017-11-08T00:06:07.921Z,5.27
2017-11-08T00:06:11.738Z,5.28
2017-11-08T00:06:15.825Z,5.28
2017-11-08T00:06:19.771Z,5.29
2017-11-08T00:06:23.589Z,5.28
2017-11-08T00:06:27.664Z,5.28
2017-11-08T00:06:31.877Z,5.28
2017-11-08T00:06:35.563Z,5.28
2017-11-08T00:06:39.371Z,5.28
2017-11-08T00:06:43.336Z,5.28
2017-11-08T00:06:47.588Z,5.29
2017-11-08T00:06:51.666Z,5.3
2017-11-08T00:06:55.631Z,5.3
2017-11-08T00:06:59.582Z,5.3
2017-11-08T00:07:03.791Z,5.29
2017-11-08T00:07:07.608Z,5.29
2017-11-08T00:07:11.423Z,5.29
2017-11-08T00:07:15.638Z,5.3
2017-11-08T00:07:19.600Z,5.3
2017-11-08T00:07:23.413Z,5.3
2017-11-08T00:07:27.231Z,5.3
2017-11-08T00:07:31.307Z,5.3
2017-11-08T00:07:35.255Z,5.3
2017-11-08T00:07:39.072Z,5.31
2017-11-08T00:07:42.769Z,5.3
2017-11-08T00:07:46.867Z,5.31
2017-11-08T00:07:50.946Z,5.3
2017-11-08T00:07:55.026Z,5.31
2017-11-08T00:07:58.977Z,5.31
2017-11-08T00:08:03.514Z,5.31
2017-11-08T00:08:07.465Z,5.31
2017-11-08T00:08:11.549Z,5.32
2017-11-08T00:08:15.366Z,5.31
2017-11-08T00:08:19.184Z,5.32
2017-11-08T00:08:22.999Z,5.32
2017-11-08T00:08:26.675Z,5.33
2017-11-08T00:08:30.892Z,5.33
2017-11-08T00:08:34.838Z,5.32
2017-11-08T00:08:38.784Z,5.33
2017-11-08T00:08:42.728Z,5.33
2017-11-08T00:08:46.543Z,5.34
2017-11-08T00:08:50.883Z,5.33
2017-11-08T00:08:54.962Z,5.33
2017-11-08T00:08:58.776Z,5.34
2017-11-08T00:09:03.136Z,5.34
2017-11-08T00:09:07.087Z,5.33
2017-11-08T00:09:11.170Z,5.35
2017-11-08T00:09:15.258Z,5.35
2017-11-08T00:09:19.481Z,5.35
2017-11-08T00:09:23.553Z,5.35
2017-11-08T00:09:27.634Z,5.35
2017-11-08T00:09:31.586Z,5.34
2017-11-08T00:09:35.271Z,5.35
2017-11-08T00:09:39.356Z,5.35
2017-11-08T00:09:43.435Z,5.35
2017-11-08T00:09:47.512Z,5.34
2017-11-08T00:09:51.592Z,5.35
2017-11-08T00:09:55.407Z,5.34
2017-11-08T00:09:59.618Z,5.35
2017-11-08T00:10:03.969Z,5.35
2017-11-08T00:10:07.914Z,5.36
2017-11-08T00:10:11.730Z,5.35
2017-11-08T00:10:15.939Z,5.35
2017-11-08T00:10:20.151Z,5.35
2017-11-08T00:10:23.971Z,5.36
2017-11-08T00:10:27.912Z,5.35
2017-11-08T00:10:32.130Z,5.36
2017-11-08T00:10:36.477Z,5.36
2017-11-08T00:10:40.423Z,5.35
2017-11-08T00:10:44.238Z,5.36
2017-11-08T00:10:48.184Z,5.35
2017-11-08T00:10:52.272Z,5.36
2017-11-08T00:10:56.352Z,5.36
2017-11-08T00:11:00.298Z,5.35
2017-11-08T00:11:04.111Z,5.35
2017-11-08T00:11:08.192Z,5.35
2017-11-08T00:11:12.272Z,5.35
2017-11-08T00:11:16.227Z,5.35
2017-11-08T00:11:20.189Z,5.35
2017-11-08T00:11:24.402Z,5.35
2017-11-08T00:11:28.082Z,5.35
2017-11-08T00:11:32.030Z,5.35
2017-11-08T00:11:36.115Z,5.36
2017-11-08T00:11:39.929Z,5.35
2017-11-08T00:11:44.011Z,5.35
2017-11-08T00:11:47.832Z,5.34
2017-11-08T00:11:51.926Z,5.35
2017-11-08T00:11:55.877Z,5.35
2017-11-08T00:11:59.815Z,5.35
2017-11-08T00:12:03.895Z,5.35
2017-11-08T00:12:08.104Z,5.36
2017-11-08T00:12:11.785Z,5.35
2017-11-08T00:12:15.863Z,5.35
2017-11-08T00:12:19.937Z,5.34
2017-11-08T00:12:24.161Z,5.34
2017-11-08T00:12:27.976Z,5.36
2017-11-08T00:12:31.790Z,5.35
2017-11-08T00:12:35.732Z,5.35
2017-11-08T00:12:39.695Z,5.35
2017-11-08T00:12:43.776Z,5.35
2017-11-08T00:12:47.989Z,5.35
2017-11-08T00:12:51.937Z,5.35
2017-11-08T00:12:55.884Z,5.34
2017-11-08T00:12:59.847Z,5.35
2017-11-08T00:13:03.926Z,5.35
2017-11-08T00:13:07.874Z,5.36
2017-11-08T00:13:11.952Z,5.35
2017-11-08T00:13:15.762Z,5.36
2017-11-08T00:13:19.573Z,5.35
2017-11-08T00:13:23.663Z,5.35
2017-11-08T00:13:27.614Z,5.36
2017-11-08T00:13:31.560Z,5.36
2017-11-08T00:13:35.644Z,5.36
2017-11-08T00:13:39.474Z,5.36
2017-11-08T00:13:43.551Z,5.36
2017-11-08T00:13:47.497Z,5.36
2017-11-08T00:13:51.444Z,5.36
2017-11-08T00:13:55.525Z,5.36
2017-11-08T00:13:59.742Z,5.36
2017-11-08T00:14:03.960Z,5.35
2017-11-08T00:14:08.046Z,5.36
2017-11-08T00:14:12.133Z,5.35
2017-11-08T00:14:15.952Z,5.34
2017-11-08T00:14:19.903Z,5.35
2017-11-08T00:14:23.860Z,5.35
2017-11-08T00:14:27.808Z,5.35
2017-11-08T00:14:31.898Z,5.35
2017-11-08T00:14:36.118Z,5.35
2017-11-08T00:14:39.930Z,5.35
2017-11-08T00:14:44.011Z,5.35
2017-11-08T00:14:47.958Z,5.34
2017-11-08T00:14:52.030Z,5.35
2017-11-08T00:14:56.252Z,5.35
2017-11-08T00:15:00.196Z,5.35
2017-11-08T00:15:04.275Z,5.35
2017-11-08T00:15:08.225Z,5.35
2017-11-08T00:15:12.175Z,5.34
2017-11-08T00:15:16.388Z,5.34
2017-11-08T00:15:20.488Z,5.35
2017-11-08T00:15:24.833Z,5.34
2017-11-08T00:15:28.648Z,5.34
2017-11-08T00:15:32.466Z,5.34
2017-11-08T00:15:36.680Z,5.34
2017-11-08T00:15:40.887Z,5.33
2017-11-08T00:15:45.103Z,5.34
2017-11-08T00:15:49.048Z,5.33
2017-11-08T00:15:53.133Z,5.32
2017-11-08T00:15:56.945Z,5.33
2017-11-08T00:16:01.154Z,5.33
2017-11-08T00:16:05.067Z,5.32
2017-11-08T00:16:09.153Z,5.32
2017-11-08T00:16:13.231Z,5.32
2017-11-08T00:16:17.174Z,5.33
2017-11-08T00:16:21.119Z,5.32
2017-11-08T00:16:24.935Z,5.32
2017-11-08T00:16:28.885Z,5.32
2017-11-08T00:16:32.971Z,5.32
2017-11-08T00:16:36.786Z,5.32
2017-11-08T00:16:40.736Z,5.31
2017-11-08T00:16:44.814Z,5.31
2017-11-08T00:16:48.886Z,5.33
2017-11-08T00:16:52.702Z,5.32
2017-11-08T00:16:56.779Z,5.31
2017-11-08T00:17:00.870Z,5.32
2017-11-08T00:17:05.080Z,5.32
2017-11-08T00:17:09.176Z,5.31
2017-11-08T00:17:13.132Z,5.31
2017-11-08T00:17:17.212Z,5.31
2017-11-08T00:17:21.289Z,5.31
2017-11-08T00:17:25.236Z,5.31
2017-11-08T00:17:29.047Z,5.31
2017-11-08T00:17:32.997Z,5.31
2017-11-08T00:17:36.943Z,5.31
2017-11-08T00:17:40.887Z,5.3
2017-11-08T00:17:45.227Z,5.31
2017-11-08T00:17:49.171Z,5.3
2017-11-08T00:17:52.990Z,5.31
2017-11-08T00:17:56.807Z,5.31
2017-11-08T00:18:01.018Z,5.3
2017-11-08T00:18:04.835Z,5.31
2017-11-08T00:18:08.653Z,5.32
2017-11-08T00:18:12.863Z,5.3
2017-11-08T00:18:16.938Z,5.31
2017-11-08T00:18:21.032Z,5.31
2017-11-08T00:18:25.131Z,5.31
2017-11-08T00:18:29.074Z,5.3
2017-11-08T00:18:33.019Z,5.3
2017-11-08T00:18:36.969Z,5.3
2017-11-08T00:18:40.917Z,5.31
2017-11-08T00:18:44.734Z,5.3
2017-11-08T00:18:48.823Z,5.31
2017-11-08T00:18:53.029Z,5.31
2017-11-08T00:18:57.123Z,5.3
2017-11-08T00:19:01.200Z,5.31
2017-11-08T00:19:05.281Z,5.3
2017-11-08T00:19:09.096Z,5.31
2017-11-08T00:19:13.314Z,5.31
2017-11-08T00:19:17.387Z,5.31
2017-11-08T00:19:21.335Z,5.31
2017-11-08T00:19:25.280Z,5.31
2017-11-08T00:19:29.233Z,5.31
2017-11-08T00:19:33.047Z,5.31
2017-11-08T00:19:36.996Z,5.31
2017-11-08T00:19:41.233Z,5.3
2017-11-08T00:19:45.178Z,5.32
2017-11-08T00:19:48.993Z,5.31
2017-11-08T00:19:53.082Z,5.31
2017-11-08T00:19:57.157Z,5.32
2017-11-08T00:20:01.374Z,5.31
2017-11-08T00:20:05.890Z,5.3
2017-11-08T00:20:09.977Z,5.31
2017-11-08T00:20:14.191Z,5.31
2017-11-08T00:20:18.271Z,5.31
2017-11-08T00:20:22.090Z,5.31
2017-11-08T00:20:26.041Z,5.31
2017-11-08T00:20:30.127Z,5.32
2017-11-08T00:20:34.210Z,5.31
2017-11-08T00:20:38.416Z,5.32
2017-11-08T00:20:42.499Z,5.32
2017-11-08T00:20:46.576Z,5.31
2017-11-08T00:20:50.521Z,5.32
2017-11-08T00:20:54.337Z,5.32
2017-11-08T00:20:58.415Z,5.33
2017-11-08T00:21:02.618Z,5.32
2017-11-08T00:21:06.562Z,5.32
2017-11-08T00:21:10.781Z,5.34
2017-11-08T00:21:15.120Z,5.33
2017-11-08T00:21:19.205Z,5.32
2017-11-08T00:21:23.281Z,5.32
2017-11-08T00:21:27.101Z,5.32
2017-11-08T00:21:30.935Z,5.33
2017-11-08T00:21:35.127Z,5.33
2017-11-08T00:21:39.068Z,5.33
2017-11-08T00:21:42.891Z,5.33
2017-11-08T00:21:46.967Z,5.33
2017-11-08T00:21:50.781Z,5.32
2017-11-08T00:21:54.468Z,5.32
2017-11-08T00:21:58.540Z,5.34
2017-11-08T00:22:02.687Z,5.34
2017-11-08T00:22:06.772Z,5.34
2017-11-08T00:22:10.989Z,5.34
2017-11-08T00:22:15.075Z,5.33
2017-11-08T00:22:19.149Z,5.33
2017-11-08T00:22:23.234Z,5.33
2017-11-08T00:22:27.185Z,5.33
2017-11-08T00:22:31.133Z,5.34
2017-11-08T00:22:35.212Z,5.34
2017-11-08T00:22:39.163Z,5.33
2017-11-08T00:22:42.849Z,5.34
2017-11-08T00:22:47.059Z,5.34
2017-11-08T00:22:51.137Z,5.34
2017-11-08T00:22:54.952Z,5.35
2017-11-08T00:22:58.893Z,5.35
2017-11-08T00:23:03.279Z,5.34
2017-11-08T00:23:07.357Z,5.35
2017-11-08T00:23:11.435Z,5.33
2017-11-08T00:23:15.256Z,5.34
2017-11-08T00:23:19.332Z,5.33
2017-11-08T00:23:23.272Z,5.34
2017-11-08T00:23:27.220Z,5.34
2017-11-08T00:23:31.442Z,5.34
2017-11-08T00:23:35.522Z,5.34
2017-11-08T00:23:39.608Z,5.34
2017-11-08T00:23:43.826Z,5.35
2017-11-08T00:23:47.900Z,5.35
2017-11-08T00:23:52.128Z,5.34
2017-11-08T00:23:56.073Z,5.35
2017-11-08T00:23:59.886Z,5.35
2017-11-08T00:24:03.797Z,5.34
2017-11-08T00:24:08.028Z,5.35
2017-11-08T00:24:12.235Z,5.34
2017-11-08T00:24:16.186Z,5.35
2017-11-08T00:24:20.000Z,5.34
2017-11-08T00:24:23.949Z,5.35
2017-11-08T00:24:27.913Z,5.34
2017-11-08T00:24:32.010Z,5.34
2017-11-08T00:24:35.950Z,5.34
2017-11-08T00:24:39.635Z,5.35
2017-11-08T00:24:43.845Z,5.35
2017-11-08T00:24:47.794Z,5.35
2017-11-08T00:24:51.605Z,5.35
2017-11-08T00:24:55.554Z,5.34
2017-11-08T00:24:59.498Z,5.35
2017-11-08T00:25:03.438Z,5.35
2017-11-08T00:25:07.253Z,5.35
2017-11-08T00:25:11.334Z,5.35
2017-11-08T00:25:15.425Z,5.36
2017-11-08T00:25:19.382Z,5.35
2017-11-08T00:25:23.347Z,5.36
2017-11-08T00:25:27.426Z,5.36
2017-11-08T00:25:31.246Z,5.34
2017-11-08T00:25:35.190Z,5.36
2017-11-08T00:25:38.871Z,5.36
2017-11-08T00:25:42.828Z,5.35
2017-11-08T00:25:46.906Z,5.36
2017-11-08T00:25:50.851Z,5.36
2017-11-08T00:25:54.934Z,5.36
2017-11-08T00:25:59.021Z,5.36
2017-11-08T00:26:02.836Z,5.36
2017-11-08T00:26:06.929Z,5.35
2017-11-08T00:26:10.880Z,5.36
2017-11-08T00:26:15.085Z,5.37
2017-11-08T00:26:18.894Z,5.37
2017-11-08T00:26:22.976Z,5.37
2017-11-08T00:26:26.660Z,5.37
2017-11-08T00:26:30.746Z,5.37
2017-11-08T00:26:34.692Z,5.38
2017-11-08T00:26:38.641Z,5.36
2017-11-08T00:26:42.585Z,5.37
2017-11-08T00:26:46.667Z,5.37
2017-11-08T00:26:50.877Z,5.37
2017-11-08T00:26:54.966Z,5.37
2017-11-08T00:26:58.912Z,5.36
2017-11-08T00:27:03.213Z,5.38
2017-11-08T00:27:07.558Z,5.37
2017-11-08T00:27:11.501Z,5.37
2017-11-08T00:27:15.446Z,5.37
2017-11-08T00:27:19.527Z,5.38
2017-11-08T00:27:23.883Z,5.37
2017-11-08T00:27:27.700Z,5.37
2017-11-08T00:27:31.510Z,5.37
2017-11-08T00:27:35.723Z,5.37
2017-11-08T00:27:39.930Z,5.39
2017-11-08T00:27:43.880Z,5.38
2017-11-08T00:27:47.697Z,5.38
2017-11-08T00:27:51.791Z,5.38
2017-11-08T00:27:55.741Z,5.39
2017-11-08T00:27:59.955Z,5.39
2017-11-08T00:28:04.315Z,5.39
2017-11-08T00:28:08.521Z,5.39
2017-11-08T00:28:12.334Z,5.39
2017-11-08T00:28:16.417Z,5.39
2017-11-08T00:28:20.767Z,5.39
2017-11-08T00:28:24.854Z,5.39
2017-11-08T00:28:28.930Z,5.39
2017-11-08T00:28:33.023Z,5.39
2017-11-08T00:28:36.837Z,5.39
2017-11-08T00:28:40.790Z,5.39
2017-11-08T00:28:45.002Z,5.39
2017-11-08T00:28:48.819Z,5.39
2017-11-08T00:28:52.902Z,5.39
2017-11-08T00:28:56.853Z,5.4
2017-11-08T00:29:00.807Z,5.39
2017-11-08T00:29:04.900Z,5.39
2017-11-08T00:29:09.002Z,5.39
2017-11-08T00:29:13.086Z,5.38
2017-11-08T00:29:17.313Z,5.39
2017-11-08T00:29:20.989Z,5.38
2017-11-08T00:29:25.075Z,5.38
2017-11-08T00:29:29.163Z,5.39
2017-11-08T00:29:33.110Z,5.38
2017-11-08T00:29:37.056Z,5.39
2017-11-08T00:29:41.137Z,5.39
2017-11-08T00:29:45.084Z,5.38
2017-11-08T00:29:48.921Z,5.39
2017-11-08T00:29:52.866Z,5.38
2017-11-08T00:29:56.813Z,5.38
2017-11-08T00:30:00.891Z,5.39
2017-11-08T00:30:05.288Z,5.38
2017-11-08T00:30:09.628Z,5.38
2017-11-08T00:30:13.572Z,5.39
2017-11-08T00:30:17.784Z,5.39
2017-11-08T00:30:21.986Z,5.38
2017-11-08T00:30:26.065Z,5.38
2017-11-08T00:30:30.016Z,5.39
2017-11-08T00:30:34.225Z,5.38
2017-11-08T00:30:37.911Z,5.39
2017-11-08T00:30:41.726Z,5.4
2017-11-08T00:30:45.844Z,5.39
2017-11-08T00:30:49.786Z,5.39
2017-11-08T00:30:53.601Z,5.39
2017-11-08T00:30:57.681Z,5.39
2017-11-08T00:31:01.644Z,5.39
2017-11-08T00:31:05.786Z,5.39
2017-11-08T00:31:09.737Z,5.39
2017-11-08T00:31:13.817Z,5.39
2017-11-08T00:31:18.187Z,5.4
2017-11-08T00:31:21.979Z,5.39
2017-11-08T00:31:26.189Z,5.4
2017-11-08T00:31:30.403Z,5.41
2017-11-08T00:31:34.480Z,5.39
2017-11-08T00:31:38.772Z,5.41
2017-11-08T00:31:42.731Z,5.41
2017-11-08T00:31:46.808Z,5.41
2017-11-08T00:31:50.756Z,5.4
2017-11-08T00:31:54.702Z,5.42
2017-11-08T00:31:58.652Z,5.41
2017-11-08T00:32:02.652Z,5.41
2017-11-08T00:32:06.603Z,5.41
2017-11-08T00:32:10.678Z,5.42
2017-11-08T00:32:14.758Z,5.42
2017-11-08T00:32:18.842Z,5.41
2017-11-08T00:32:22.787Z,5.41
2017-11-08T00:32:27.005Z,5.42
2017-11-08T00:32:30.945Z,5.42
2017-11-08T00:32:34.892Z,5.41
2017-11-08T00:32:38.841Z,5.41
2017-11-08T00:32:42.799Z,5.42
2017-11-08T00:32:46.487Z,5.42
2017-11-08T00:32:50.303Z,5.42
2017-11-08T00:32:54.253Z,5.41
2017-11-08T00:32:58.200Z,5.42
2017-11-08T00:33:02.276Z,5.42
2017-11-08T00:33:06.355Z,5.42
2017-11-08T00:33:10.427Z,5.42
2017-11-08T00:33:14.515Z,5.43
2017-11-08T00:33:18.605Z,5.42
2017-11-08T00:33:22.693Z,5.42
2017-11-08T00:33:26.514Z,5.42
2017-11-08T00:33:30.463Z,5.43
2017-11-08T00:33:34.277Z,5.42
2017-11-08T00:33:38.485Z,5.43
2017-11-08T00:33:42.304Z,5.42
2017-11-08T00:33:46.251Z,5.42
2017-11-08T00:33:50.461Z,5.43
2017-11-08T00:33:54.274Z,5.43
2017-11-08T00:33:58.487Z,5.43
2017-11-08T00:34:02.568Z,5.43
2017-11-08T00:34:06.648Z,5.42
2017-11-08T00:34:10.599Z,5.42
2017-11-08T00:34:14.680Z,5.43
2017-11-08T00:34:18.764Z,5.43
2017-11-08T00:34:22.705Z,5.43
2017-11-08T00:34:26.923Z,5.44
2017-11-08T00:34:31.008Z,5.44
2017-11-08T00:34:35.083Z,5.44
2017-11-08T00:34:38.894Z,5.43
2017-11-08T00:34:43.104Z,5.44
2017-11-08T00:34:47.053Z,5.45
2017-11-08T00:34:50.870Z,5.45
2017-11-08T00:34:54.684Z,5.45
2017-11-08T00:34:58.631Z,5.45
2017-11-08T00:35:02.446Z,5.43
2017-11-08T00:35:06.398Z,5.45
2017-11-08T00:35:10.487Z,5.45
2017-11-08T00:35:14.298Z,5.45
2017-11-08T00:35:18.249Z,5.46
2017-11-08T00:35:22.491Z,5.46
2017-11-08T00:35:26.567Z,5.45
2017-11-08T00:35:30.378Z,5.45
2017-11-08T00:35:34.193Z,5.45
2017-11-08T00:35:38.269Z,5.45
2017-11-08T00:35:42.087Z,5.46
2017-11-08T00:35:46.029Z,5.45
2017-11-08T00:35:49.841Z,5.45
2017-11-08T00:35:54.065Z,5.45
2017-11-08T00:35:58.138Z,5.45
2017-11-08T00:36:02.083Z,5.46
2017-11-08T00:36:06.044Z,5.45
2017-11-08T00:36:10.023Z,5.46
2017-11-08T00:36:13.836Z,5.46
2017-11-08T00:36:17.927Z,5.46
2017-11-08T00:36:22.148Z,5.47
2017-11-08T00:36:26.358Z,5.46
2017-11-08T00:36:30.303Z,5.45
2017-11-08T00:36:34.252Z,5.46
2017-11-08T00:36:38.336Z,5.47
2017-11-08T00:36:42.412Z,5.46
2017-11-08T00:36:46.228Z,5.47
2017-11-08T00:36:50.045Z,5.46
2017-11-08T00:36:53.984Z,5.46
2017-11-08T00:36:57.932Z,5.47
2017-11-08T00:37:02.146Z,5.46
2017-11-08T00:37:06.354Z,5.47
2017-11-08T00:37:10.568Z,5.46
2017-11-08T00:37:14.654Z,5.47
2017-11-08T00:37:18.468Z,5.46
2017-11-08T00:37:22.808Z,5.45
2017-11-08T00:37:26.886Z,5.46
2017-11-08T00:37:30.572Z,5.47
2017-11-08T00:37:34.386Z,5.46
2017-11-08T00:37:38.475Z,5.46
2017-11-08T00:37:42.553Z,5.47
2017-11-08T00:37:46.368Z,5.45
2017-11-08T00:37:50.315Z,5.47
2017-11-08T00:37:54.390Z,5.46
2017-11-08T00:37:58.331Z,5.46
2017-11-08T00:38:02.366Z,5.46
2017-11-08T00:38:06.317Z,5.46
2017-11-08T00:38:10.270Z,5.46
2017-11-08T00:38:14.086Z,5.46
2017-11-08T00:38:18.159Z,5.46
2017-11-08T00:38:21.974Z,5.45
2017-11-08T00:38:25.923Z,5.45
2017-11-08T00:38:30.140Z,5.45
2017-11-08T00:38:34.213Z,5.44
2017-11-08T00:38:38.168Z,5.45
2017-11-08T00:38:41.981Z,5.44
2017-11-08T00:38:46.055Z,5.44
2017-11-08T00:38:50.018Z,5.45
2017-11-08T00:38:53.834Z,5.45
2017-11-08T00:38:57.928Z,5.44
2017-11-08T00:39:01.877Z,5.44
2017-11-08T00:39:05.787Z,5.44
2017-11-08T00:39:09.600Z,5.44
2017-11-08T00:39:13.675Z,5.43
2017-11-08T00:39:17.628Z,5.44
2017-11-08T00:39:21.699Z,5.43
2017-11-08T00:39:25.515Z,5.43
2017-11-08T00:39:29.593Z,5.43
2017-11-08T00:39:33.679Z,5.43
2017-11-08T00:39:37.501Z,5.42
2017-11-08T00:39:41.583Z,5.43
2017-11-08T00:39:45.924Z,5.42
2017-11-08T00:39:50.006Z,5.42
2017-11-08T00:39:54.208Z,5.42
2017-11-08T00:39:58.160Z,5.43
2017-11-08T00:40:02.106Z,5.43
2017-11-08T00:40:05.918Z,5.42
2017-11-08T00:40:09.751Z,5.43
2017-11-08T00:40:13.833Z,5.43
2017-11-08T00:40:18.040Z,5.43
2017-11-08T00:40:21.998Z,5.43
2017-11-08T00:40:26.222Z,5.43
2017-11-08T00:40:30.159Z,5.43
2017-11-08T00:40:34.374Z,5.43
2017-11-08T00:40:38.332Z,5.43
2017-11-08T00:40:42.271Z,5.43
2017-11-08T00:40:46.084Z,5.43
2017-11-08T00:40:50.304Z,5.43
2017-11-08T00:40:54.116Z,5.44
2017-11-08T00:40:58.198Z,5.43
2017-11-08T00:41:02.569Z,5.43
2017-11-08T00:41:06.788Z,5.43
2017-11-08T00:41:10.870Z,5.42
2017-11-08T00:41:14.944Z,5.43
2017-11-08T00:41:18.628Z,5.43
2017-11-08T00:41:22.577Z,5.42
2017-11-08T00:41:26.655Z,5.42
2017-11-08T00:41:30.863Z,5.43
2017-11-08T00:41:34.677Z,5.43
2017-11-08T00:41:38.767Z,5.42
2017-11-08T00:41:42.971Z,5.42
2017-11-08T00:41:46.789Z,5.42
2017-11-08T00:41:50.611Z,5.42
2017-11-08T00:41:54.418Z,5.43
2017-11-08T00:41:58.503Z,5.42
2017-11-08T00:42:02.691Z,5.42
2017-11-08T00:42:07.031Z,5.42
2017-11-08T00:42:11.128Z,5.42
2017-11-08T00:42:15.472Z,5.42
2017-11-08T00:42:19.554Z,5.41
2017-11-08T00:42:23.534Z,5.41
2017-11-08T00:42:27.474Z,5.42
2017-11-08T00:42:31.424Z,5.41
2017-11-08T00:42:35.245Z,5.41
2017-11-08T00:42:39.320Z,5.41
2017-11-08T00:42:43.403Z,5.41
2017-11-08T00:42:47.219Z,5.41
2017-11-08T00:42:51.299Z,5.4
2017-11-08T00:42:55.249Z,5.41
2017-11-08T00:42:59.092Z,5.4
2017-11-08T00:43:03.183Z,5.41
2017-11-08T00:43:07.138Z,5.41
2017-11-08T00:43:11.235Z,5.4
2017-11-08T00:43:15.050Z,5.4
2017-11-08T00:43:18.863Z,5.4
2017-11-08T00:43:22.811Z,5.4
2017-11-08T00:43:27.024Z,5.39
2017-11-08T00:43:31.100Z,5.4
2017-11-08T00:43:35.187Z,5.4
2017-11-08T00:43:39.141Z,5.4
2017-11-08T00:43:43.348Z,5.4
2017-11-08T00:43:47.295Z,5.4
2017-11-08T00:43:51.238Z,5.4
2017-11-08T00:43:55.450Z,5.39
2017-11-08T00:43:59.404Z,5.38
2017-11-08T00:44:03.508Z,5.4
2017-11-08T00:44:07.330Z,5.4
2017-11-08T00:44:11.409Z,5.4
2017-11-08T00:44:15.491Z,5.4
2017-11-08T00:44:19.320Z,5.4
2017-11-08T00:44:23.270Z,5.4
2017-11-08T00:44:27.380Z,5.4
2017-11-08T00:44:31.196Z,5.4
2017-11-08T00:44:35.014Z,5.4
2017-11-08T00:44:39.091Z,5.4
2017-11-08T00:44:43.042Z,5.41
2017-11-08T00:44:46.999Z,5.39
2017-11-08T00:44:51.244Z,5.4
2017-11-08T00:44:55.320Z,5.4
2017-11-08T00:44:59.411Z,5.41
2017-11-08T00:45:04.006Z,5.4
2017-11-08T00:45:08.211Z,5.4
2017-11-08T00:45:12.290Z,5.4
2017-11-08T00:45:16.360Z,5.4
2017-11-08T00:45:20.178Z,5.4
2017-11-08T00:45:24.122Z,5.39
2017-11-08T00:45:28.063Z,5.4
2017-11-08T00:45:32.276Z,5.39
2017-11-08T00:45:36.357Z,5.39
2017-11-08T00:45:40.706Z,5.39
2017-11-08T00:45:44.784Z,5.39
2017-11-08T00:45:48.863Z,5.39
2017-11-08T00:45:53.068Z,5.39
2017-11-08T00:45:57.013Z,5.39
2017-11-08T00:46:01.110Z,5.4
2017-11-08T00:46:05.056Z,5.39
2017-11-08T00:46:09.006Z,5.38
2017-11-08T00:46:12.957Z,5.38
2017-11-08T00:46:16.902Z,5.38
2017-11-08T00:46:20.843Z,5.39
2017-11-08T00:46:24.797Z,5.38
2017-11-08T00:46:29.009Z,5.38
2017-11-08T00:46:32.821Z,5.38
2017-11-08T00:46:36.767Z,5.38
2017-11-08T00:46:40.839Z,5.38
2017-11-08T00:46:44.649Z,5.38
2017-11-08T00:46:48.606Z,5.39
2017-11-08T00:46:52.546Z,5.37
2017-11-08T00:46:56.655Z,5.38
2017-11-08T00:47:00.737Z,5.38
2017-11-08T00:47:04.525Z,5.38
2017-11-08T00:47:08.612Z,5.38
2017-11-08T00:47:12.555Z,5.38
2017-11-08T00:47:16.497Z,5.38
2017-11-08T00:47:20.586Z,5.38
2017-11-08T00:47:24.669Z,5.37
2017-11-08T00:47:28.744Z,5.38
2017-11-08T00:47:32.574Z,5.38
2017-11-08T00:47:36.520Z,5.38
2017-11-08T00:47:40.460Z,5.38
2017-11-08T00:47:44.418Z,5.38
2017-11-08T00:47:48.387Z,5.37
2017-11-08T00:47:52.868Z,5.37
2017-11-08T00:47:57.080Z,5.37
2017-11-08T00:48:01.166Z,5.38
2017-11-08T00:48:05.634Z,5.37
2017-11-08T00:48:09.724Z,5.37
2017-11-08T00:48:13.811Z,5.38
2017-11-08T00:48:17.493Z,5.38
2017-11-08T00:48:21.576Z,5.37
2017-11-08T00:48:25.393Z,5.37
2017-11-08T00:48:29.209Z,5.37
2017-11-08T00:48:33.554Z,5.38
2017-11-08T00:48:37.644Z,5.37
2017-11-08T00:48:41.714Z,5.36
2017-11-08T00:48:45.800Z,5.37
2017-11-08T00:48:49.624Z,5.37
2017-11-08T00:48:53.694Z,5.37
2017-11-08T00:48:57.778Z,5.37
2017-11-08T00:49:02.134Z,5.37
2017-11-08T00:49:06.475Z,5.36
2017-11-08T00:49:10.290Z,5.36
2017-11-08T00:49:13.973Z,5.37
2017-11-08T00:49:18.055Z,5.36
2017-11-08T00:49:22.005Z,5.37
2017-11-08T00:49:26.081Z,5.37
2017-11-08T00:49:30.026Z,5.36
2017-11-08T00:49:33.971Z,5.36
2017-11-08T00:49:37.783Z,5.36
2017-11-08T00:49:41.855Z,5.36
2017-11-08T00:49:46.067Z,5.35
2017-11-08T00:49:49.883Z,5.36
2017-11-08T00:49:53.964Z,5.36
2017-11-08T00:49:57.647Z,5.36
2017-11-08T00:50:01.729Z,5.36
2017-11-08T00:50:05.857Z,5.36
2017-11-08T00:50:09.680Z,5.36
2017-11-08T00:50:13.767Z,5.37
2017-11-08T00:50:17.715Z,5.36
2017-11-08T00:50:21.793Z,5.36
2017-11-08T00:50:26.029Z,5.36
2017-11-08T00:50:30.234Z,5.36
2017-11-08T00:50:34.056Z,5.36
2017-11-08T00:50:38.135Z,5.36
2017-11-08T00:50:42.207Z,5.36
2017-11-08T00:50:46.168Z,5.36
2017-11-08T00:50:50.253Z,5.35
2017-11-08T00:50:54.076Z,5.37
2017-11-08T00:50:58.029Z,5.35
2017-11-08T00:51:02.390Z,5.36
2017-11-08T00:51:06.341Z,5.36
2017-11-08T00:51:10.422Z,5.36
2017-11-08T00:51:14.492Z,5.35
2017-11-08T00:51:18.432Z,5.35
2017-11-08T00:51:22.511Z,5.35
2017-11-08T00:51:26.587Z,5.35
2017-11-08T00:51:30.667Z,5.35
2017-11-08T00:51:34.610Z,5.36
2017-11-08T00:51:38.948Z,5.36
2017-11-08T00:51:43.031Z,5.36
2017-11-08T00:51:46.843Z,5.36
2017-11-08T00:51:50.919Z,5.36
2017-11-08T00:51:54.732Z,5.35
2017-11-08T00:51:58.812Z,5.36
2017-11-08T00:52:03.316Z,5.35
2017-11-08T00:52:06.999Z,5.36
2017-11-08T00:52:10.950Z,5.35
2017-11-08T00:52:14.761Z,5.35
2017-11-08T00:52:18.845Z,5.34
2017-11-08T00:52:22.793Z,5.35
2017-11-08T00:52:26.608Z,5.34
2017-11-08T00:52:30.690Z,5.34
2017-11-08T00:52:34.373Z,5.34
2017-11-08T00:52:38.456Z,5.35
2017-11-08T00:52:42.797Z,5.35
2017-11-08T00:52:46.747Z,5.34
2017-11-08T00:52:50.560Z,5.34
2017-11-08T00:52:54.504Z,5.34
2017-11-08T00:52:58.459Z,5.34
2017-11-08T00:53:02.271Z,5.34
2017-11-08T00:53:06.089Z,5.35
2017-11-08T00:53:10.164Z,5.34
2017-11-08T00:53:13.845Z,5.35
2017-11-08T00:53:17.926Z,5.33
2017-11-08T00:53:22.277Z,5.33
2017-11-08T00:53:26.092Z,5.34
2017-11-08T00:53:29.781Z,5.33
2017-11-08T00:53:33.739Z,5.33